sensor_id;sensor_type;location;lat;lon;timestamp;temperature;humidity
42743;DHT22;28397;44.552;-0.848;2022-12-07T00:01:10;7.30;99.90
42743;DHT22;28397;44.552;-0.848;2022-12-07T00:03:37;7.30;99.90
42743;DHT22;28397;44.552;-0.848;2022-12-07T00:06:05;7.10;99.90
42743;DHT22;28397;44.552;-0.848;2022-12-07T00:08:32;7.20;99.90
42743;DHT22;28397;44.552;-0.848;2022-12-07T00:11:06;7.30;99.90
42743;DHT22;28397;44.552;-0.848;2022-12-07T00:13:32;7.20;99.90
42743;DHT22;28397;44.552;-0.848;2022-12-07T00:16:07;7.20;99.90
42743;DHT22;28397;44.552;-0.848;2022-12-07T00:18:34;7.10;99.90
42743;DHT22;28397;44.552;-0.848;2022-12-07T00:21:04;7.10;99.90
42743;DHT22;28397;44.552;-0.848;2022-12-07T00:23:30;7.00;99.90
42743;DHT22;28397;44.552;-0.848;2022-12-07T00:26:06;7.00;99.90
42743;DHT22;28397;44.552;-0.848;2022-12-07T00:28:32;7.00;99.90
42743;DHT22;28397;44.552;-0.848;2022-12-07T00:31:10;6.90;99.90
42743;DHT22;28397;44.552;-0.848;2022-12-07T00:33:36;6.90;99.90
42743;DHT22;28397;44.552;-0.848;2022-12-07T00:36:08;6.90;99.90
42743;DHT22;28397;44.552;-0.848;2022-12-07T00:38:35;6.90;99.90
42743;DHT22;28397;44.552;-0.848;2022-12-07T00:41:04;7.10;99.90
42743;DHT22;28397;44.552;-0.848;2022-12-07T00:43:30;6.90;99.90
42743;DHT22;28397;44.552;-0.848;2022-12-07T00:45:56;6.80;99.90
42743;DHT22;28397;44.552;-0.848;2022-12-07T00:48:22;6.70;99.90
42743;DHT22;28397;44.552;-0.848;2022-12-07T00:50:48;6.80;99.90
42743;DHT22;28397;44.552;-0.848;2022-12-07T00:53:14;6.80;99.90
42743;DHT22;28397;44.552;-0.848;2022-12-07T00:55:41;6.90;99.90
42743;DHT22;28397;44.552;-0.848;2022-12-07T00:58:07;6.80;99.90
42743;DHT22;28397;44.552;-0.848;2022-12-07T01:00:33;6.80;99.90
42743;DHT22;28397;44.552;-0.848;2022-12-07T01:03:00;6.70;99.90
42743;DHT22;28397;44.552;-0.848;2022-12-07T01:05:25;6.70;99.90
42743;DHT22;28397;44.552;-0.848;2022-12-07T01:07:51;6.60;99.90
42743;DHT22;28397;44.552;-0.848;2022-12-07T01:10:17;6.70;99.90
42743;DHT22;28397;44.552;-0.848;2022-12-07T01:12:43;6.60;99.90
42743;DHT22;28397;44.552;-0.848;2022-12-07T01:15:09;6.40;99.90
42743;DHT22;28397;44.552;-0.848;2022-12-07T01:17:34;6.30;99.90
42743;DHT22;28397;44.552;-0.848;2022-12-07T01:20:01;6.50;99.90
42743;DHT22;28397;44.552;-0.848;2022-12-07T01:22:27;6.50;99.90
42743;DHT22;28397;44.552;-0.848;2022-12-07T01:24:53;6.50;99.90
42743;DHT22;28397;44.552;-0.848;2022-12-07T01:27:18;6.30;99.90
42743;DHT22;28397;44.552;-0.848;2022-12-07T01:29:44;6.40;99.90
42743;DHT22;28397;44.552;-0.848;2022-12-07T01:32:10;6.40;99.90
42743;DHT22;28397;44.552;-0.848;2022-12-07T01:34:36;6.30;99.90
42743;DHT22;28397;44.552;-0.848;2022-12-07T01:37:02;6.20;99.90
42743;DHT22;28397;44.552;-0.848;2022-12-07T01:39:27;6.30;99.90
42743;DHT22;28397;44.552;-0.848;2022-12-07T01:41:53;6.10;99.90
42743;DHT22;28397;44.552;-0.848;2022-12-07T01:47:00;6.10;99.90
42743;DHT22;28397;44.552;-0.848;2022-12-07T01:49:45;6.10;99.90
42743;DHT22;28397;44.552;-0.848;2022-12-07T01:52:30;6.20;99.90
42743;DHT22;28397;44.552;-0.848;2022-12-07T01:55:03;6.10;99.90
42743;DHT22;28397;44.552;-0.848;2022-12-07T01:57:32;5.90;99.90
42743;DHT22;28397;44.552;-0.848;2022-12-07T01:59:58;5.90;99.90
42743;DHT22;28397;44.552;-0.848;2022-12-07T02:03:09;5.90;99.90
42743;DHT22;28397;44.552;-0.848;2022-12-07T02:05:27;5.90;99.90
42743;DHT22;28397;44.552;-0.848;2022-12-07T02:07:55;5.90;99.90
42743;DHT22;28397;44.552;-0.848;2022-12-07T02:10:24;5.80;99.90
42743;DHT22;28397;44.552;-0.848;2022-12-07T02:12:57;5.80;99.90
42743;DHT22;28397;44.552;-0.848;2022-12-07T02:18:32;5.80;99.90
42743;DHT22;28397;44.552;-0.848;2022-12-07T02:31:43;5.40;99.90
42743;DHT22;28397;44.552;-0.848;2022-12-07T02:34:18;5.40;99.90
42743;DHT22;28397;44.552;-0.848;2022-12-07T02:36:51;5.30;99.90
42743;DHT22;28397;44.552;-0.848;2022-12-07T02:42:00;5.10;99.90
42743;DHT22;28397;44.552;-0.848;2022-12-07T02:44:28;4.90;99.90
42743;DHT22;28397;44.552;-0.848;2022-12-07T02:47:05;5.10;99.90
42743;DHT22;28397;44.552;-0.848;2022-12-07T02:49:32;5.00;99.90
42743;DHT22;28397;44.552;-0.848;2022-12-07T02:51:58;4.90;99.90
42743;DHT22;28397;44.552;-0.848;2022-12-07T02:54:24;4.80;99.90
42743;DHT22;28397;44.552;-0.848;2022-12-07T02:57:04;4.60;99.90
42743;DHT22;28397;44.552;-0.848;2022-12-07T03:07:55;4.50;99.90
42743;DHT22;28397;44.552;-0.848;2022-12-07T03:13:16;4.30;99.90
42743;DHT22;28397;44.552;-0.848;2022-12-07T03:18:54;4.30;99.90
42743;DHT22;28397;44.552;-0.848;2022-12-07T03:21:27;4.20;99.90
42743;DHT22;28397;44.552;-0.848;2022-12-07T03:23:57;4.10;99.90
42743;DHT22;28397;44.552;-0.848;2022-12-07T03:26:31;4.20;99.90
42743;DHT22;28397;44.552;-0.848;2022-12-07T03:29:05;4.20;99.90
42743;DHT22;28397;44.552;-0.848;2022-12-07T03:31:35;4.30;99.90
42743;DHT22;28397;44.552;-0.848;2022-12-07T03:34:21;4.50;99.90
42743;DHT22;28397;44.552;-0.848;2022-12-07T03:37:18;4.00;99.90
42743;DHT22;28397;44.552;-0.848;2022-12-07T03:40:13;3.90;99.90
42743;DHT22;28397;44.552;-0.848;2022-12-07T03:42:40;3.80;99.90
42743;DHT22;28397;44.552;-0.848;2022-12-07T03:47:57;3.80;99.90
42743;DHT22;28397;44.552;-0.848;2022-12-07T03:50:41;3.80;99.90
42743;DHT22;28397;44.552;-0.848;2022-12-07T03:53:15;3.50;99.90
42743;DHT22;28397;44.552;-0.848;2022-12-07T03:55:45;3.40;99.90
42743;DHT22;28397;44.552;-0.848;2022-12-07T03:58:17;3.40;99.90
42743;DHT22;28397;44.552;-0.848;2022-12-07T04:00:44;3.50;99.90
42743;DHT22;28397;44.552;-0.848;2022-12-07T04:03:11;3.50;99.90
42743;DHT22;28397;44.552;-0.848;2022-12-07T04:05:37;3.50;99.90
42743;DHT22;28397;44.552;-0.848;2022-12-07T04:08:04;3.10;99.90
42743;DHT22;28397;44.552;-0.848;2022-12-07T04:10:30;3.10;99.90
42743;DHT22;28397;44.552;-0.848;2022-12-07T04:12:56;3.10;99.90
42743;DHT22;28397;44.552;-0.848;2022-12-07T04:15:22;3.00;99.90
42743;DHT22;28397;44.552;-0.848;2022-12-07T04:17:47;3.00;99.90
42743;DHT22;28397;44.552;-0.848;2022-12-07T04:20:13;2.90;99.90
42743;DHT22;28397;44.552;-0.848;2022-12-07T04:22:39;2.80;99.90
42743;DHT22;28397;44.552;-0.848;2022-12-07T04:25:05;2.80;99.90
42743;DHT22;28397;44.552;-0.848;2022-12-07T04:27:31;2.90;99.90
42743;DHT22;28397;44.552;-0.848;2022-12-07T04:29:57;2.80;99.90
42743;DHT22;28397;44.552;-0.848;2022-12-07T04:32:23;3.50;99.90
42743;DHT22;28397;44.552;-0.848;2022-12-07T04:34:49;2.80;99.90
42743;DHT22;28397;44.552;-0.848;2022-12-07T04:37:15;2.70;99.90
42743;DHT22;28397;44.552;-0.848;2022-12-07T04:39:41;2.80;99.90
42743;DHT22;28397;44.552;-0.848;2022-12-07T04:42:07;2.70;99.90
42743;DHT22;28397;44.552;-0.848;2022-12-07T04:44:35;2.70;99.90
42743;DHT22;28397;44.552;-0.848;2022-12-07T04:47:00;2.60;99.90
42743;DHT22;28397;44.552;-0.848;2022-12-07T04:49:26;2.70;99.90
42743;DHT22;28397;44.552;-0.848;2022-12-07T04:51:52;2.70;99.90
42743;DHT22;28397;44.552;-0.848;2022-12-07T04:54:18;2.80;99.90
42743;DHT22;28397;44.552;-0.848;2022-12-07T04:56:44;2.70;99.90
42743;DHT22;28397;44.552;-0.848;2022-12-07T04:59:11;2.60;99.90
42743;DHT22;28397;44.552;-0.848;2022-12-07T05:01:37;2.60;99.90
42743;DHT22;28397;44.552;-0.848;2022-12-07T05:04:03;2.60;99.90
42743;DHT22;28397;44.552;-0.848;2022-12-07T05:06:29;2.50;99.90
42743;DHT22;28397;44.552;-0.848;2022-12-07T05:08:55;2.50;99.90
42743;DHT22;28397;44.552;-0.848;2022-12-07T05:11:21;2.50;99.90
42743;DHT22;28397;44.552;-0.848;2022-12-07T05:14:10;2.50;99.90
42743;DHT22;28397;44.552;-0.848;2022-12-07T05:16:37;2.30;99.90
42743;DHT22;28397;44.552;-0.848;2022-12-07T05:19:04;2.30;99.90
42743;DHT22;28397;44.552;-0.848;2022-12-07T05:21:30;2.20;99.90
42743;DHT22;28397;44.552;-0.848;2022-12-07T05:23:55;2.30;99.90
42743;DHT22;28397;44.552;-0.848;2022-12-07T05:26:21;2.20;99.90
42743;DHT22;28397;44.552;-0.848;2022-12-07T05:28:54;2.20;99.90
42743;DHT22;28397;44.552;-0.848;2022-12-07T05:31:21;2.20;99.90
42743;DHT22;28397;44.552;-0.848;2022-12-07T05:33:46;2.20;99.90
42743;DHT22;28397;44.552;-0.848;2022-12-07T05:36:12;2.30;99.90
42743;DHT22;28397;44.552;-0.848;2022-12-07T05:38:38;2.20;99.90
42743;DHT22;28397;44.552;-0.848;2022-12-07T05:41:05;2.20;99.90
42743;DHT22;28397;44.552;-0.848;2022-12-07T05:43:32;2.20;99.90
42743;DHT22;28397;44.552;-0.848;2022-12-07T05:45:58;2.30;99.90
42743;DHT22;28397;44.552;-0.848;2022-12-07T05:48:24;2.20;99.90
42743;DHT22;28397;44.552;-0.848;2022-12-07T05:50:51;2.20;99.90
42743;DHT22;28397;44.552;-0.848;2022-12-07T05:53:17;2.30;99.90
42743;DHT22;28397;44.552;-0.848;2022-12-07T05:55:43;2.30;99.90
42743;DHT22;28397;44.552;-0.848;2022-12-07T05:58:09;2.30;99.90
42743;DHT22;28397;44.552;-0.848;2022-12-07T06:00:56;2.20;99.90
42743;DHT22;28397;44.552;-0.848;2022-12-07T06:03:22;2.30;99.90
42743;DHT22;28397;44.552;-0.848;2022-12-07T06:05:48;2.40;99.90
42743;DHT22;28397;44.552;-0.848;2022-12-07T06:08:14;2.30;99.90
42743;DHT22;28397;44.552;-0.848;2022-12-07T06:10:41;2.20;99.90
42743;DHT22;28397;44.552;-0.848;2022-12-07T06:13:08;2.20;99.90
42743;DHT22;28397;44.552;-0.848;2022-12-07T06:15:38;2.20;99.90
42743;DHT22;28397;44.552;-0.848;2022-12-07T06:18:03;2.30;99.90
42743;DHT22;28397;44.552;-0.848;2022-12-07T06:20:29;2.20;99.90
42743;DHT22;28397;44.552;-0.848;2022-12-07T06:22:55;2.30;99.90
42743;DHT22;28397;44.552;-0.848;2022-12-07T06:25:20;2.30;99.90
42743;DHT22;28397;44.552;-0.848;2022-12-07T06:27:46;2.40;99.90
42743;DHT22;28397;44.552;-0.848;2022-12-07T06:30:12;2.50;99.90
42743;DHT22;28397;44.552;-0.848;2022-12-07T06:32:38;2.50;99.90
42743;DHT22;28397;44.552;-0.848;2022-12-07T06:35:04;2.40;99.90
42743;DHT22;28397;44.552;-0.848;2022-12-07T06:37:30;2.40;99.90
42743;DHT22;28397;44.552;-0.848;2022-12-07T06:39:56;2.40;99.90
42743;DHT22;28397;44.552;-0.848;2022-12-07T06:42:22;2.40;99.90
42743;DHT22;28397;44.552;-0.848;2022-12-07T06:44:47;2.40;99.90
42743;DHT22;28397;44.552;-0.848;2022-12-07T06:47:13;2.40;99.90
42743;DHT22;28397;44.552;-0.848;2022-12-07T06:49:39;2.50;99.90
42743;DHT22;28397;44.552;-0.848;2022-12-07T06:52:04;2.40;99.90
42743;DHT22;28397;44.552;-0.848;2022-12-07T06:54:31;2.40;99.90
42743;DHT22;28397;44.552;-0.848;2022-12-07T06:56:57;2.50;99.90
42743;DHT22;28397;44.552;-0.848;2022-12-07T06:59:22;2.50;99.90
42743;DHT22;28397;44.552;-0.848;2022-12-07T07:01:48;2.40;99.90
42743;DHT22;28397;44.552;-0.848;2022-12-07T07:04:14;2.50;99.90
42743;DHT22;28397;44.552;-0.848;2022-12-07T07:06:39;2.40;99.90
42743;DHT22;28397;44.552;-0.848;2022-12-07T07:09:05;2.40;99.90
42743;DHT22;28397;44.552;-0.848;2022-12-07T07:11:31;2.40;99.90
42743;DHT22;28397;44.552;-0.848;2022-12-07T07:13:57;2.40;99.90
42743;DHT22;28397;44.552;-0.848;2022-12-07T07:16:28;2.50;99.90
42743;DHT22;28397;44.552;-0.848;2022-12-07T07:18:54;2.50;99.90
42743;DHT22;28397;44.552;-0.848;2022-12-07T07:21:20;2.50;99.90
42743;DHT22;28397;44.552;-0.848;2022-12-07T07:23:45;2.50;99.90
42743;DHT22;28397;44.552;-0.848;2022-12-07T07:26:11;2.60;99.90
42743;DHT22;28397;44.552;-0.848;2022-12-07T07:28:37;2.60;99.90
42743;DHT22;28397;44.552;-0.848;2022-12-07T07:31:03;2.60;99.90
42743;DHT22;28397;44.552;-0.848;2022-12-07T07:33:29;2.60;99.90
42743;DHT22;28397;44.552;-0.848;2022-12-07T07:35:54;2.70;99.90
42743;DHT22;28397;44.552;-0.848;2022-12-07T07:38:20;2.70;99.90
42743;DHT22;28397;44.552;-0.848;2022-12-07T07:40:46;2.70;99.90
42743;DHT22;28397;44.552;-0.848;2022-12-07T07:43:12;2.60;99.90
42743;DHT22;28397;44.552;-0.848;2022-12-07T07:45:38;2.70;99.90
42743;DHT22;28397;44.552;-0.848;2022-12-07T07:48:03;2.60;99.90
42743;DHT22;28397;44.552;-0.848;2022-12-07T07:50:29;2.80;99.90
42743;DHT22;28397;44.552;-0.848;2022-12-07T07:52:57;2.70;99.90
42743;DHT22;28397;44.552;-0.848;2022-12-07T07:55:22;2.70;99.90
42743;DHT22;28397;44.552;-0.848;2022-12-07T07:57:48;2.70;99.90
42743;DHT22;28397;44.552;-0.848;2022-12-07T08:00:15;2.80;99.90
42743;DHT22;28397;44.552;-0.848;2022-12-07T08:02:42;2.90;99.90
42743;DHT22;28397;44.552;-0.848;2022-12-07T08:05:12;2.90;99.90
42743;DHT22;28397;44.552;-0.848;2022-12-07T08:07:38;2.80;99.90
42743;DHT22;28397;44.552;-0.848;2022-12-07T08:10:04;2.80;99.90
42743;DHT22;28397;44.552;-0.848;2022-12-07T08:12:30;2.80;99.90
42743;DHT22;28397;44.552;-0.848;2022-12-07T08:14:55;2.80;99.90
42743;DHT22;28397;44.552;-0.848;2022-12-07T08:17:21;2.80;99.90
42743;DHT22;28397;44.552;-0.848;2022-12-07T08:19:47;2.80;99.90
42743;DHT22;28397;44.552;-0.848;2022-12-07T08:22:12;2.90;99.90
42743;DHT22;28397;44.552;-0.848;2022-12-07T08:24:38;2.80;99.90
42743;DHT22;28397;44.552;-0.848;2022-12-07T08:27:04;2.90;99.90
42743;DHT22;28397;44.552;-0.848;2022-12-07T08:29:30;3.00;99.90
42743;DHT22;28397;44.552;-0.848;2022-12-07T08:31:55;3.00;99.90
42743;DHT22;28397;44.552;-0.848;2022-12-07T08:34:21;3.10;99.90
42743;DHT22;28397;44.552;-0.848;2022-12-07T08:36:47;3.00;99.90
42743;DHT22;28397;44.552;-0.848;2022-12-07T08:39:13;3.00;99.90
42743;DHT22;28397;44.552;-0.848;2022-12-07T08:41:38;3.00;99.90
42743;DHT22;28397;44.552;-0.848;2022-12-07T08:44:04;3.00;99.90
42743;DHT22;28397;44.552;-0.848;2022-12-07T08:46:58;3.10;99.90
42743;DHT22;28397;44.552;-0.848;2022-12-07T08:49:43;3.10;99.90
42743;DHT22;28397;44.552;-0.848;2022-12-07T08:52:11;2.90;99.90
42743;DHT22;28397;44.552;-0.848;2022-12-07T08:54:38;3.00;99.90
42743;DHT22;28397;44.552;-0.848;2022-12-07T08:57:05;3.00;99.90
42743;DHT22;28397;44.552;-0.848;2022-12-07T08:59:33;3.20;99.90
42743;DHT22;28397;44.552;-0.848;2022-12-07T09:02:00;3.30;99.90
42743;DHT22;28397;44.552;-0.848;2022-12-07T09:04:26;3.30;99.90
42743;DHT22;28397;44.552;-0.848;2022-12-07T09:06:52;3.20;99.90
42743;DHT22;28397;44.552;-0.848;2022-12-07T09:09:18;3.40;99.90
42743;DHT22;28397;44.552;-0.848;2022-12-07T09:11:44;3.40;99.90
42743;DHT22;28397;44.552;-0.848;2022-12-07T09:14:11;3.40;99.90
42743;DHT22;28397;44.552;-0.848;2022-12-07T09:16:37;3.60;99.90
42743;DHT22;28397;44.552;-0.848;2022-12-07T09:19:03;3.40;99.90
42743;DHT22;28397;44.552;-0.848;2022-12-07T09:21:29;3.70;99.90
42743;DHT22;28397;44.552;-0.848;2022-12-07T09:23:55;3.60;99.90
42743;DHT22;28397;44.552;-0.848;2022-12-07T09:26:22;3.60;99.90
42743;DHT22;28397;44.552;-0.848;2022-12-07T09:28:47;3.80;99.90
42743;DHT22;28397;44.552;-0.848;2022-12-07T09:31:13;3.90;99.90
42743;DHT22;28397;44.552;-0.848;2022-12-07T09:33:39;3.70;99.90
42743;DHT22;28397;44.552;-0.848;2022-12-07T09:36:05;3.60;99.90
42743;DHT22;28397;44.552;-0.848;2022-12-07T09:38:31;4.00;99.90
42743;DHT22;28397;44.552;-0.848;2022-12-07T09:41:07;3.90;99.90
42743;DHT22;28397;44.552;-0.848;2022-12-07T09:43:35;4.00;99.90
42743;DHT22;28397;44.552;-0.848;2022-12-07T09:46:01;4.40;99.90
42743;DHT22;28397;44.552;-0.848;2022-12-07T09:48:33;4.40;99.90
42743;DHT22;28397;44.552;-0.848;2022-12-07T09:51:02;4.10;99.90
42743;DHT22;28397;44.552;-0.848;2022-12-07T09:53:33;4.40;99.90
42743;DHT22;28397;44.552;-0.848;2022-12-07T09:55:59;4.60;99.90
42743;DHT22;28397;44.552;-0.848;2022-12-07T09:58:28;5.10;99.90
42743;DHT22;28397;44.552;-0.848;2022-12-07T10:01:01;5.40;99.90
42743;DHT22;28397;44.552;-0.848;2022-12-07T10:03:28;4.90;99.90
42743;DHT22;28397;44.552;-0.848;2022-12-07T10:05:55;4.70;99.90
42743;DHT22;28397;44.552;-0.848;2022-12-07T10:08:21;4.90;99.90
42743;DHT22;28397;44.552;-0.848;2022-12-07T10:10:54;4.90;99.90
42743;DHT22;28397;44.552;-0.848;2022-12-07T10:13:44;5.60;99.90
42743;DHT22;28397;44.552;-0.848;2022-12-07T10:16:38;5.70;99.90
42743;DHT22;28397;44.552;-0.848;2022-12-07T10:19:31;5.40;99.90
42743;DHT22;28397;44.552;-0.848;2022-12-07T10:22:13;5.30;99.90
42743;DHT22;28397;44.552;-0.848;2022-12-07T10:24:46;5.20;99.90
42743;DHT22;28397;44.552;-0.848;2022-12-07T10:27:29;5.50;99.90
42743;DHT22;28397;44.552;-0.848;2022-12-07T10:29:57;5.50;99.90
42743;DHT22;28397;44.552;-0.848;2022-12-07T10:37:43;6.30;99.90
42743;DHT22;28397;44.552;-0.848;2022-12-07T10:45:56;5.90;99.90
42743;DHT22;28397;44.552;-0.848;2022-12-07T10:48:54;5.50;99.90
42743;DHT22;28397;44.552;-0.848;2022-12-07T10:51:46;5.80;99.90
42743;DHT22;28397;44.552;-0.848;2022-12-07T11:05:24;5.60;99.90
42743;DHT22;28397;44.552;-0.848;2022-12-07T11:16:27;6.40;99.90
42743;DHT22;28397;44.552;-0.848;2022-12-07T11:21:58;6.40;99.90
42743;DHT22;28397;44.552;-0.848;2022-12-07T11:33:05;6.40;99.90
42743;DHT22;28397;44.552;-0.848;2022-12-07T11:35:48;6.40;99.90
42743;DHT22;28397;44.552;-0.848;2022-12-07T11:38:22;6.20;99.90
42743;DHT22;28397;44.552;-0.848;2022-12-07T11:40:50;6.90;99.90
42743;DHT22;28397;44.552;-0.848;2022-12-07T11:43:28;7.30;99.90
42743;DHT22;28397;44.552;-0.848;2022-12-07T11:46:08;7.40;99.90
42743;DHT22;28397;44.552;-0.848;2022-12-07T11:48:50;6.50;99.90
42743;DHT22;28397;44.552;-0.848;2022-12-07T11:51:18;6.50;99.90
42743;DHT22;28397;44.552;-0.848;2022-12-07T11:53:51;8.00;99.90
42743;DHT22;28397;44.552;-0.848;2022-12-07T11:56:25;8.60;99.90
42743;DHT22;28397;44.552;-0.848;2022-12-07T12:04:39;6.90;99.90
42743;DHT22;28397;44.552;-0.848;2022-12-07T12:07:07;7.10;99.90
42743;DHT22;28397;44.552;-0.848;2022-12-07T12:09:47;7.60;99.90
42743;DHT22;28397;44.552;-0.848;2022-12-07T12:15:13;6.80;99.90
42743;DHT22;28397;44.552;-0.848;2022-12-07T12:18:15;7.00;99.90
42743;DHT22;28397;44.552;-0.848;2022-12-07T12:20:51;7.20;99.90
42743;DHT22;28397;44.552;-0.848;2022-12-07T12:26:24;7.40;99.90
42743;DHT22;28397;44.552;-0.848;2022-12-07T12:34:00;7.70;99.90
42743;DHT22;28397;44.552;-0.848;2022-12-07T12:39:19;7.70;99.90
42743;DHT22;28397;44.552;-0.848;2022-12-07T12:46:54;7.50;99.90
42743;DHT22;28397;44.552;-0.848;2022-12-07T12:51:56;7.90;99.90
42743;DHT22;28397;44.552;-0.848;2022-12-07T12:54:27;7.90;99.90
42743;DHT22;28397;44.552;-0.848;2022-12-07T13:02:32;7.70;99.90
42743;DHT22;28397;44.552;-0.848;2022-12-07T13:18:41;7.20;99.90
42743;DHT22;28397;44.552;-0.848;2022-12-07T13:23:55;7.30;99.90
42743;DHT22;28397;44.552;-0.848;2022-12-07T13:29:18;7.00;99.90
42743;DHT22;28397;44.552;-0.848;2022-12-07T13:31:53;7.10;99.90
42743;DHT22;28397;44.552;-0.848;2022-12-07T13:34:41;7.30;99.90
42743;DHT22;28397;44.552;-0.848;2022-12-07T13:39:50;7.20;99.90
42743;DHT22;28397;44.552;-0.848;2022-12-07T13:44:48;7.50;99.90
42743;DHT22;28397;44.552;-0.848;2022-12-07T13:50:01;7.20;99.90
42743;DHT22;28397;44.552;-0.848;2022-12-07T13:52:29;7.10;99.90
42743;DHT22;28397;44.552;-0.848;2022-12-07T13:57:33;7.60;99.90
42743;DHT22;28397;44.552;-0.848;2022-12-07T14:00:01;7.30;99.90
42743;DHT22;28397;44.552;-0.848;2022-12-07T14:02:30;7.20;99.90
42743;DHT22;28397;44.552;-0.848;2022-12-07T14:08:29;7.70;99.90
42743;DHT22;28397;44.552;-0.848;2022-12-07T14:13:38;7.30;99.90
42743;DHT22;28397;44.552;-0.848;2022-12-07T14:18:48;7.50;99.90
42743;DHT22;28397;44.552;-0.848;2022-12-07T14:21:16;7.50;99.90
42743;DHT22;28397;44.552;-0.848;2022-12-07T14:23:43;7.60;99.90
42743;DHT22;28397;44.552;-0.848;2022-12-07T14:28:39;7.70;99.90
42743;DHT22;28397;44.552;-0.848;2022-12-07T14:31:32;7.70;99.90
42743;DHT22;28397;44.552;-0.848;2022-12-07T14:34:00;7.60;99.90
42743;DHT22;28397;44.552;-0.848;2022-12-07T14:36:26;7.50;99.90
42743;DHT22;28397;44.552;-0.848;2022-12-07T14:38:52;7.70;99.90
42743;DHT22;28397;44.552;-0.848;2022-12-07T14:41:22;7.80;99.90
42743;DHT22;28397;44.552;-0.848;2022-12-07T14:44:11;7.60;99.90
42743;DHT22;28397;44.552;-0.848;2022-12-07T14:46:37;7.60;99.90
42743;DHT22;28397;44.552;-0.848;2022-12-07T14:49:03;7.60;99.90
42743;DHT22;28397;44.552;-0.848;2022-12-07T14:51:29;7.50;99.90
42743;DHT22;28397;44.552;-0.848;2022-12-07T14:53:54;7.60;99.90
42743;DHT22;28397;44.552;-0.848;2022-12-07T14:56:20;7.60;99.90
42743;DHT22;28397;44.552;-0.848;2022-12-07T14:58:46;7.50;99.90
42743;DHT22;28397;44.552;-0.848;2022-12-07T15:01:14;7.60;99.90
42743;DHT22;28397;44.552;-0.848;2022-12-07T15:03:39;7.70;99.90
42743;DHT22;28397;44.552;-0.848;2022-12-07T15:06:06;7.50;99.90
42743;DHT22;28397;44.552;-0.848;2022-12-07T15:08:32;7.50;99.90
42743;DHT22;28397;44.552;-0.848;2022-12-07T15:10:58;7.50;99.90
42743;DHT22;28397;44.552;-0.848;2022-12-07T15:13:24;7.50;99.90
42743;DHT22;28397;44.552;-0.848;2022-12-07T15:16:11;7.60;99.90
42743;DHT22;28397;44.552;-0.848;2022-12-07T15:18:38;7.60;99.90
42743;DHT22;28397;44.552;-0.848;2022-12-07T15:21:04;7.60;99.90
42743;DHT22;28397;44.552;-0.848;2022-12-07T15:23:29;7.70;99.90
42743;DHT22;28397;44.552;-0.848;2022-12-07T15:25:56;7.60;99.90
42743;DHT22;28397;44.552;-0.848;2022-12-07T15:28:22;7.80;99.90
42743;DHT22;28397;44.552;-0.848;2022-12-07T15:30:47;7.90;99.90
42743;DHT22;28397;44.552;-0.848;2022-12-07T15:33:13;7.90;99.90
42743;DHT22;28397;44.552;-0.848;2022-12-07T15:35:43;7.80;99.90
42743;DHT22;28397;44.552;-0.848;2022-12-07T15:38:09;7.90;99.90
42743;DHT22;28397;44.552;-0.848;2022-12-07T15:40:35;7.90;99.90
42743;DHT22;28397;44.552;-0.848;2022-12-07T15:43:02;7.90;99.90
42743;DHT22;28397;44.552;-0.848;2022-12-07T15:45:28;7.70;99.90
42743;DHT22;28397;44.552;-0.848;2022-12-07T15:47:53;7.70;99.90
42743;DHT22;28397;44.552;-0.848;2022-12-07T15:50:21;7.80;99.90
42743;DHT22;28397;44.552;-0.848;2022-12-07T15:52:47;7.70;99.90
42743;DHT22;28397;44.552;-0.848;2022-12-07T15:55:13;7.60;99.90
42743;DHT22;28397;44.552;-0.848;2022-12-07T15:57:39;7.60;99.90
42743;DHT22;28397;44.552;-0.848;2022-12-07T16:00:06;7.60;99.90
42743;DHT22;28397;44.552;-0.848;2022-12-07T16:02:32;7.50;99.90
42743;DHT22;28397;44.552;-0.848;2022-12-07T16:04:58;7.50;99.90
42743;DHT22;28397;44.552;-0.848;2022-12-07T16:07:23;7.40;99.90
42743;DHT22;28397;44.552;-0.848;2022-12-07T16:09:49;7.30;99.90
42743;DHT22;28397;44.552;-0.848;2022-12-07T16:12:15;7.30;99.90
42743;DHT22;28397;44.552;-0.848;2022-12-07T16:14:41;7.30;99.90
42743;DHT22;28397;44.552;-0.848;2022-12-07T16:17:08;7.30;99.90
42743;DHT22;28397;44.552;-0.848;2022-12-07T16:19:35;7.20;99.90
42743;DHT22;28397;44.552;-0.848;2022-12-07T16:22:01;7.20;99.90
42743;DHT22;28397;44.552;-0.848;2022-12-07T16:24:28;7.20;99.90
42743;DHT22;28397;44.552;-0.848;2022-12-07T16:26:54;7.20;99.90
42743;DHT22;28397;44.552;-0.848;2022-12-07T16:29:21;7.10;99.90
42743;DHT22;28397;44.552;-0.848;2022-12-07T16:31:47;7.10;99.90
42743;DHT22;28397;44.552;-0.848;2022-12-07T16:34:13;7.10;99.90
42743;DHT22;28397;44.552;-0.848;2022-12-07T16:36:39;7.20;99.90
42743;DHT22;28397;44.552;-0.848;2022-12-07T16:39:05;7.10;99.90
42743;DHT22;28397;44.552;-0.848;2022-12-07T16:41:31;7.10;99.90
42743;DHT22;28397;44.552;-0.848;2022-12-07T16:44:00;7.00;99.90
42743;DHT22;28397;44.552;-0.848;2022-12-07T16:46:27;7.10;99.90
42743;DHT22;28397;44.552;-0.848;2022-12-07T16:48:53;7.00;99.90
42743;DHT22;28397;44.552;-0.848;2022-12-07T16:51:19;7.00;99.90
42743;DHT22;28397;44.552;-0.848;2022-12-07T16:53:45;7.00;99.90
42743;DHT22;28397;44.552;-0.848;2022-12-07T16:56:12;6.90;99.90
42743;DHT22;28397;44.552;-0.848;2022-12-07T16:58:38;6.90;99.90
42743;DHT22;28397;44.552;-0.848;2022-12-07T17:01:18;6.80;99.90
42743;DHT22;28397;44.552;-0.848;2022-12-07T17:03:45;6.80;99.90
42743;DHT22;28397;44.552;-0.848;2022-12-07T17:06:21;6.80;99.90
42743;DHT22;28397;44.552;-0.848;2022-12-07T17:08:48;6.80;99.90
42743;DHT22;28397;44.552;-0.848;2022-12-07T17:11:22;6.80;99.90
42743;DHT22;28397;44.552;-0.848;2022-12-07T17:13:48;6.80;99.90
42743;DHT22;28397;44.552;-0.848;2022-12-07T17:16:33;6.70;99.90
42743;DHT22;28397;44.552;-0.848;2022-12-07T17:18:58;6.80;99.90
42743;DHT22;28397;44.552;-0.848;2022-12-07T17:21:24;6.70;99.90
42743;DHT22;28397;44.552;-0.848;2022-12-07T17:23:50;6.60;99.90
42743;DHT22;28397;44.552;-0.848;2022-12-07T17:26:20;6.60;99.90
42743;DHT22;28397;44.552;-0.848;2022-12-07T17:28:47;6.60;99.90
42743;DHT22;28397;44.552;-0.848;2022-12-07T17:31:15;6.40;99.90
42743;DHT22;28397;44.552;-0.848;2022-12-07T17:33:41;6.30;99.90
42743;DHT22;28397;44.552;-0.848;2022-12-07T17:36:13;6.20;99.90
42743;DHT22;28397;44.552;-0.848;2022-12-07T17:38:40;6.20;99.90
42743;DHT22;28397;44.552;-0.848;2022-12-07T17:41:19;6.20;99.90
42743;DHT22;28397;44.552;-0.848;2022-12-07T17:44:06;6.20;99.90
42743;DHT22;28397;44.552;-0.848;2022-12-07T17:46:32;6.10;99.90
42743;DHT22;28397;44.552;-0.848;2022-12-07T17:48:58;6.00;99.90
42743;DHT22;28397;44.552;-0.848;2022-12-07T17:51:24;6.10;99.90
42743;DHT22;28397;44.552;-0.848;2022-12-07T17:54:10;6.00;99.90
42743;DHT22;28397;44.552;-0.848;2022-12-07T17:56:36;5.90;99.90
42743;DHT22;28397;44.552;-0.848;2022-12-07T17:59:02;6.00;99.90
42743;DHT22;28397;44.552;-0.848;2022-12-07T18:01:28;5.90;99.90
42743;DHT22;28397;44.552;-0.848;2022-12-07T18:03:54;5.80;99.90
42743;DHT22;28397;44.552;-0.848;2022-12-07T18:06:19;6.00;99.90
42743;DHT22;28397;44.552;-0.848;2022-12-07T18:08:45;6.10;99.90
42743;DHT22;28397;44.552;-0.848;2022-12-07T18:11:11;6.10;99.90
42743;DHT22;28397;44.552;-0.848;2022-12-07T18:13:37;6.20;99.90